createdAt,value
2016-09-13T00:00:11.650Z,23.86
2016-09-13T00:00:33.598Z,23.99
2016-09-13T00:00:55.338Z,24.20
2016-09-13T00:01:17.160Z,24.15
2016-09-13T00:01:39.069Z,24.21
2016-09-13T00:02:00.859Z,24.29
2016-09-13T00:02:22.584Z,24.19
2016-09-13T00:02:44.344Z,23.91
2016-09-13T00:03:06.087Z,23.76
2016-09-13T00:03:27.947Z,23.70
2016-09-13T00:03:49.784Z,23.67
2016-09-13T00:04:11.576Z,23.66
2016-09-13T00:04:33.317Z,23.61
2016-09-13T00:04:55.166Z,23.57
2016-09-13T00:05:21.734Z,23.62
2016-09-13T00:05:43.469Z,23.53
2016-09-13T00:06:05.214Z,23.72
2016-09-13T00:06:26.974Z,23.96
2016-09-13T00:06:48.840Z,24.15
2016-09-13T00:07:10.626Z,24.19
2016-09-13T00:07:37.134Z,24.08
2016-09-13T00:08:30.221Z,24.13
2016-09-13T00:08:53.045Z,24.32
2016-09-13T00:09:14.798Z,24.47
2016-09-13T00:09:47.982Z,24.42
2016-09-13T00:10:09.697Z,24.48
2016-09-13T00:10:31.508Z,24.43
2016-09-13T00:10:53.262Z,24.43
2016-09-13T00:11:15.016Z,24.27
2016-09-13T00:11:36.763Z,24.13
2016-09-13T00:11:58.487Z,24.11
2016-09-13T00:12:20.290Z,24.14
2016-09-13T00:12:42.228Z,24.06
2016-09-13T00:13:08.741Z,23.98
2016-09-13T00:13:31.575Z,24.10
2016-09-13T00:13:53.358Z,24.17
2016-09-13T00:14:15.083Z,24.05
2016-09-13T00:14:36.817Z,23.94
2016-09-13T00:14:58.542Z,23.87
2016-09-13T00:15:21.297Z,23.73
2016-09-13T00:15:43.032Z,23.58
2016-09-13T00:16:04.810Z,23.61
2016-09-13T00:16:26.584Z,23.75
2016-09-13T00:16:48.312Z,23.94
2016-09-13T00:17:10.123Z,24.10
2016-09-13T00:17:31.874Z,24.13
2016-09-13T00:17:54.616Z,24.04
2016-09-13T00:18:16.399Z,24.05
2016-09-13T00:18:38.130Z,24.04
2016-09-13T00:18:59.874Z,24.00
2016-09-13T00:19:21.620Z,23.93
2016-09-13T00:19:43.361Z,23.85
2016-09-13T00:20:05.595Z,23.74
2016-09-13T00:20:27.333Z,23.70
2016-09-13T00:20:53.833Z,23.62
2016-09-13T00:21:15.569Z,23.50
2016-09-13T00:21:38.306Z,23.37
2016-09-13T00:22:00.046Z,23.37
2016-09-13T00:22:21.783Z,23.39
2016-09-13T00:22:48.283Z,23.37
2016-09-13T00:23:10.052Z,23.39
2016-09-13T00:23:31.796Z,23.34
2016-09-13T00:23:54.530Z,23.36
2016-09-13T00:24:19.266Z,23.34
2016-09-13T00:24:41.070Z,23.33
2016-09-13T00:25:02.846Z,23.38
2016-09-13T00:25:24.604Z,23.62
2016-09-13T00:25:46.408Z,23.82
2016-09-13T00:26:08.142Z,24.07
2016-09-13T00:26:34.659Z,24.07
2016-09-13T00:26:56.484Z,23.94
2016-09-13T00:27:18.238Z,23.83
2016-09-13T00:27:44.783Z,23.94
2016-09-13T00:28:06.555Z,23.83
2016-09-13T00:28:28.283Z,23.68
2016-09-13T00:28:50.113Z,23.63
2016-09-13T00:29:11.947Z,23.66
2016-09-13T00:29:33.700Z,23.66
2016-09-13T00:29:55.493Z,23.69
2016-09-13T00:30:17.230Z,23.69
2016-09-13T00:30:38.983Z,23.77
2016-09-13T00:31:05.570Z,23.93
2016-09-13T00:31:27.314Z,23.90
2016-09-13T00:31:49.095Z,23.91
2016-09-13T00:32:10.849Z,23.99
2016-09-13T00:32:32.609Z,23.88
2016-09-13T00:32:54.357Z,23.91
2016-09-13T00:33:42.622Z,23.71
2016-09-13T00:34:05.374Z,23.62
2016-09-13T00:34:27.387Z,23.63
2016-09-13T00:34:53.905Z,23.71
2016-09-13T00:35:15.655Z,23.86
2016-09-13T00:35:37.512Z,23.92
2016-09-13T00:35:59.146Z,23.78
2016-09-13T00:36:20.968Z,23.60
2016-09-13T00:36:42.717Z,23.73
2016-09-13T00:37:05.445Z,23.75
2016-09-13T00:37:27.180Z,23.67
2016-09-13T00:37:48.961Z,23.63
2016-09-13T00:38:15.473Z,23.47
2016-09-13T00:38:37.263Z,23.52
2016-09-13T00:38:59.067Z,23.62
2016-09-13T00:39:20.802Z,23.77
2016-09-13T00:39:42.570Z,23.97
2016-09-13T00:40:04.308Z,23.96
2016-09-13T00:40:26.177Z,24.03
2016-09-13T00:40:47.986Z,24.18
2016-09-13T00:41:09.793Z,24.12
2016-09-13T00:41:31.554Z,24.10
2016-09-13T00:41:53.307Z,24.15
2016-09-13T00:42:15.032Z,24.14
2016-09-13T00:42:36.849Z,24.08
2016-09-13T00:42:58.592Z,24.09
2016-09-13T00:43:20.401Z,24.06
2016-09-13T00:43:42.159Z,24.16
2016-09-13T00:44:04.001Z,24.08
2016-09-13T00:44:26.730Z,23.94
2016-09-13T00:44:48.484Z,23.78
2016-09-13T00:45:10.222Z,23.85
2016-09-13T00:45:31.956Z,24.07
2016-09-13T00:45:53.725Z,24.20
2016-09-13T00:46:15.524Z,24.31
2016-09-13T00:46:37.275Z,24.07
2016-09-13T00:47:00.107Z,23.91
2016-09-13T00:47:21.858Z,23.87
2016-09-13T00:47:43.611Z,23.80
2016-09-13T00:48:05.370Z,23.84
2016-09-13T00:48:27.130Z,23.89
2016-09-13T00:48:48.970Z,23.99
2016-09-13T00:49:10.711Z,23.96
2016-09-13T00:49:32.449Z,23.97
2016-09-13T00:49:54.239Z,24.08
2016-09-13T00:50:16.014Z,24.04
2016-09-13T00:50:37.761Z,24.08
2016-09-13T00:50:59.505Z,24.08
2016-09-13T00:51:21.233Z,23.97
2016-09-13T00:51:43.009Z,23.92
2016-09-13T00:52:04.769Z,23.74
2016-09-13T00:52:26.514Z,23.65
2016-09-13T00:52:48.241Z,23.65
2016-09-13T00:53:10.090Z,23.66
2016-09-13T00:53:31.822Z,23.61
2016-09-13T00:53:53.561Z,23.56
2016-09-13T00:54:15.323Z,23.49
2016-09-13T00:54:37.058Z,23.48
2016-09-13T00:54:58.801Z,23.57
2016-09-13T00:55:20.543Z,23.63
2016-09-13T00:55:42.279Z,23.82
2016-09-13T00:56:04.030Z,24.00
2016-09-13T00:56:25.765Z,24.10
2016-09-13T00:56:47.521Z,24.21
2016-09-13T00:57:09.262Z,24.30
2016-09-13T00:57:30.996Z,24.36
2016-09-13T00:57:52.763Z,24.47
2016-09-13T00:58:14.590Z,24.52
2016-09-13T00:58:36.349Z,24.26
2016-09-13T00:58:58.163Z,24.05
2016-09-13T00:59:19.893Z,23.89
2016-09-13T00:59:41.646Z,23.77
2016-09-13T01:00:03.419Z,23.84
2016-09-13T01:00:25.185Z,23.93
2016-09-13T01:00:46.932Z,23.99
2016-09-13T01:01:08.680Z,24.13
2016-09-13T01:01:30.417Z,24.29
2016-09-13T01:01:52.177Z,24.30
2016-09-13T01:02:40.417Z,24.02
2016-09-13T01:03:03.162Z,23.78
2016-09-13T01:03:25.031Z,23.66
2016-09-13T01:04:13.371Z,23.46
2016-09-13T01:04:35.147Z,23.53
2016-09-13T01:04:56.887Z,23.66
2016-09-13T01:05:18.645Z,23.79
2016-09-13T01:05:45.172Z,23.82
2016-09-13T01:06:06.939Z,23.90
2016-09-13T01:06:28.670Z,24.08
2016-09-13T01:06:55.166Z,24.03
2016-09-13T01:07:16.936Z,23.85
2016-09-13T01:07:38.673Z,23.72
2016-09-13T01:08:00.407Z,23.56
2016-09-13T01:08:22.238Z,23.36
2016-09-13T01:08:43.978Z,23.22
2016-09-13T01:09:05.723Z,23.25
2016-09-13T01:09:27.672Z,23.19
2016-09-13T01:09:49.457Z,23.28
2016-09-13T01:10:11.210Z,23.40
2016-09-13T01:10:33.952Z,23.63
2016-09-13T01:10:55.703Z,23.80
2016-09-13T01:11:17.431Z,23.91
2016-09-13T01:11:39.166Z,23.79
2016-09-13T01:12:00.901Z,23.78
2016-09-13T01:12:22.760Z,23.73
2016-09-13T01:12:44.644Z,23.58
2016-09-13T01:13:11.162Z,23.43
2016-09-13T01:13:32.910Z,23.33
2016-09-13T01:13:54.657Z,23.26
2016-09-13T01:14:16.392Z,23.24
2016-09-13T01:14:38.161Z,23.23
2016-09-13T01:14:59.893Z,23.23
2016-09-13T01:15:21.885Z,23.27
2016-09-13T01:15:43.607Z,23.24
2016-09-13T01:16:05.467Z,23.23
2016-09-13T01:16:27.390Z,23.33
2016-09-13T01:16:49.291Z,23.57
2016-09-13T01:17:11.039Z,23.69
2016-09-13T01:17:32.794Z,23.84
2016-09-13T01:17:54.526Z,23.92
2016-09-13T01:18:16.260Z,23.72
2016-09-13T01:18:42.798Z,23.58
2016-09-13T01:19:04.549Z,23.62
2016-09-13T01:19:26.302Z,23.72
2016-09-13T01:19:48.027Z,23.76
2016-09-13T01:20:10.804Z,23.81
2016-09-13T01:20:32.635Z,23.84
2016-09-13T01:20:54.363Z,23.89
2016-09-13T01:21:16.146Z,23.98
2016-09-13T01:21:37.889Z,23.97
2016-09-13T01:22:04.401Z,23.90
2016-09-13T01:22:26.139Z,23.99
2016-09-13T01:22:47.873Z,24.09
2016-09-13T01:23:09.616Z,24.08
2016-09-13T01:23:31.352Z,24.17
2016-09-13T01:23:57.912Z,24.30
2016-09-13T01:24:19.640Z,24.31
2016-09-13T01:24:41.361Z,24.35
2016-09-13T01:25:04.125Z,24.27
2016-09-13T01:25:25.863Z,24.11
2016-09-13T01:25:47.640Z,23.91
2016-09-13T01:26:09.374Z,23.59
2016-09-13T01:26:32.099Z,23.42
2016-09-13T01:26:58.645Z,23.31
2016-09-13T01:27:20.549Z,23.15
2016-09-13T01:27:47.079Z,23.08
2016-09-13T01:28:09.882Z,23.03
2016-09-13T01:28:31.621Z,22.84
2016-09-13T01:28:58.133Z,22.77
2016-09-13T01:29:19.862Z,22.87
2016-09-13T01:29:41.588Z,23.02
2016-09-13T01:30:03.347Z,23.25
2016-09-13T01:30:25.153Z,23.26
2016-09-13T01:30:46.941Z,23.34
2016-09-13T01:31:08.683Z,23.44
2016-09-13T01:31:30.558Z,23.27
2016-09-13T01:31:52.318Z,23.16
2016-09-13T01:32:14.091Z,23.14
2016-09-13T01:32:35.882Z,23.13
2016-09-13T01:32:57.601Z,23.20
2016-09-13T01:33:19.540Z,23.29
2016-09-13T01:33:41.320Z,23.15
2016-09-13T01:34:03.051Z,23.04
2016-09-13T01:34:24.786Z,22.98
2016-09-13T01:34:46.515Z,23.03
2016-09-13T01:35:08.273Z,23.09
2016-09-13T01:35:30.156Z,23.19
2016-09-13T01:35:51.941Z,23.29
2016-09-13T01:36:13.688Z,23.38
2016-09-13T01:36:36.497Z,23.47
2016-09-13T01:37:03.000Z,23.52
2016-09-13T01:37:24.734Z,23.49
2016-09-13T01:37:46.475Z,23.61
2016-09-13T01:38:08.270Z,23.63
2016-09-13T01:38:31.064Z,23.75
2016-09-13T01:38:52.808Z,23.86
2016-09-13T01:39:16.593Z,23.94
2016-09-13T01:40:09.697Z,23.73
2016-09-13T01:40:32.456Z,23.50
2016-09-13T01:40:54.196Z,23.44
2016-09-13T01:41:15.951Z,23.59
2016-09-13T01:41:37.733Z,23.58
2016-09-13T01:41:59.642Z,23.53
2016-09-13T01:42:21.460Z,23.49
2016-09-13T01:42:47.960Z,23.27
2016-09-13T01:43:09.691Z,23.23
2016-09-13T01:43:31.464Z,23.22
2016-09-13T01:43:53.250Z,23.15
2016-09-13T01:44:15.032Z,23.20
2016-09-13T01:44:36.769Z,23.23
2016-09-13T01:44:58.507Z,23.22
2016-09-13T01:45:20.247Z,23.13
2016-09-13T01:45:41.986Z,23.09
2016-09-13T01:46:03.719Z,23.29
2016-09-13T01:46:25.493Z,23.19
2016-09-13T01:46:47.201Z,23.16
2016-09-13T01:47:09.108Z,23.12
2016-09-13T01:47:30.877Z,23.10
2016-09-13T01:47:52.762Z,23.18
2016-09-13T01:48:14.494Z,23.14
2016-09-13T01:48:36.254Z,23.04
2016-09-13T01:48:58.053Z,22.92
2016-09-13T01:49:19.882Z,22.79
2016-09-13T01:49:41.671Z,22.73
2016-09-13T01:50:03.493Z,22.83
2016-09-13T01:50:25.230Z,23.07
2016-09-13T01:50:47.003Z,23.24
2016-09-13T01:51:08.962Z,23.46
2016-09-13T01:51:31.704Z,23.56
2016-09-13T01:51:53.457Z,23.69
2016-09-13T01:52:15.198Z,23.69
2016-09-13T01:52:36.978Z,23.64
2016-09-13T01:52:58.725Z,23.38
2016-09-13T01:53:20.484Z,23.13
2016-09-13T01:53:42.229Z,23.00
2016-09-13T01:54:04.978Z,22.91
2016-09-13T01:54:26.716Z,22.88
2016-09-13T01:54:51.207Z,22.91
2016-09-13T01:55:17.755Z,22.90
2016-09-13T01:55:39.509Z,22.92
2016-09-13T01:56:06.046Z,22.84
2016-09-13T01:56:27.853Z,22.73
2016-09-13T01:56:49.589Z,22.74
2016-09-13T01:57:11.316Z,22.74
2016-09-13T01:57:33.057Z,22.73
2016-09-13T01:57:54.792Z,22.79
2016-09-13T01:58:16.523Z,22.67
2016-09-13T01:58:43.022Z,22.64
2016-09-13T01:59:04.753Z,22.78
2016-09-13T01:59:26.497Z,22.79
2016-09-13T01:59:48.334Z,22.72
2016-09-13T02:00:10.097Z,22.75
2016-09-13T02:00:32.049Z,22.76
2016-09-13T02:00:53.904Z,22.67
2016-09-13T02:01:15.646Z,22.65
2016-09-13T02:01:37.403Z,22.65
2016-09-13T02:01:59.108Z,22.82
2016-09-13T02:02:20.849Z,23.03
2016-09-13T02:02:42.598Z,23.12
2016-09-13T02:03:04.347Z,23.18
2016-09-13T02:03:26.072Z,23.32
2016-09-13T02:03:47.818Z,23.29
2016-09-13T02:04:10.552Z,23.35
2016-09-13T02:04:32.279Z,23.42
2016-09-13T02:04:58.776Z,23.40
2016-09-13T02:05:20.507Z,23.29
2016-09-13T02:05:42.251Z,23.02
2016-09-13T02:06:03.982Z,22.78
2016-09-13T02:06:25.825Z,22.62
2016-09-13T02:06:47.553Z,22.49
2016-09-13T02:07:09.284Z,22.35
2016-09-13T02:07:35.883Z,22.27
2016-09-13T02:07:57.623Z,22.17
2016-09-13T02:08:19.378Z,22.22
2016-09-13T02:08:42.229Z,22.29
2016-09-13T02:09:03.957Z,22.31
2016-09-13T02:09:25.803Z,22.37
2016-09-13T02:09:47.662Z,22.36
2016-09-13T02:10:09.550Z,22.56
2016-09-13T02:10:31.272Z,22.53
2016-09-13T02:10:53.010Z,22.50
2016-09-13T02:11:14.795Z,22.41
2016-09-13T02:11:37.525Z,22.44
2016-09-13T02:11:59.339Z,22.38
2016-09-13T02:12:21.140Z,22.45
2016-09-13T02:12:42.924Z,22.47
2016-09-13T02:13:04.824Z,22.34
2016-09-13T02:13:26.619Z,22.32
2016-09-13T02:13:48.347Z,22.36
2016-09-13T02:14:10.117Z,22.36
2016-09-13T02:14:31.839Z,22.37
2016-09-13T02:14:58.359Z,22.40
2016-09-13T02:15:20.095Z,22.30
2016-09-13T02:15:41.812Z,22.25
2016-09-13T02:16:05.547Z,22.28
2016-09-13T02:16:27.281Z,22.42
2016-09-13T02:16:49.019Z,22.46
2016-09-13T02:17:10.776Z,22.53
2016-09-13T02:17:32.500Z,22.66
2016-09-13T02:17:54.290Z,22.70
2016-09-13T02:18:16.017Z,22.50
2016-09-13T02:18:37.823Z,22.45
2016-09-13T02:18:59.575Z,22.59
2016-09-13T02:19:21.365Z,22.66
2016-09-13T02:19:43.266Z,22.63
2016-09-13T02:20:05.048Z,22.64
2016-09-13T02:20:26.788Z,22.59
2016-09-13T02:20:48.677Z,22.54
2016-09-13T02:21:10.536Z,22.41
2016-09-13T02:21:32.290Z,22.27
2016-09-13T02:21:54.033Z,22.21
2016-09-13T02:22:15.829Z,22.13
2016-09-13T02:22:37.563Z,22.12
2016-09-13T02:22:59.304Z,22.08
2016-09-13T02:23:22.053Z,22.19
2016-09-13T02:23:43.886Z,22.28
2016-09-13T02:24:05.621Z,22.38
2016-09-13T02:24:27.351Z,22.36
2016-09-13T02:24:49.087Z,22.29
2016-09-13T02:25:10.830Z,22.18
2016-09-13T02:25:32.589Z,22.02
2016-09-13T02:25:59.103Z,21.97
2016-09-13T02:26:20.824Z,22.06
2016-09-13T02:26:42.565Z,22.08
2016-09-13T02:27:04.302Z,22.14
2016-09-13T02:27:27.044Z,22.17
2016-09-13T02:27:48.839Z,22.18
2016-09-13T02:28:11.611Z,22.12
2016-09-13T02:28:33.335Z,22.14
2016-09-13T02:28:55.067Z,22.21
2016-09-13T02:29:16.961Z,22.31
2016-09-13T02:29:38.776Z,22.32
2016-09-13T02:30:00.516Z,22.31
2016-09-13T02:30:22.253Z,22.32
2016-09-13T02:30:43.993Z,22.25
2016-09-13T02:31:05.723Z,22.14
2016-09-13T02:31:27.460Z,22.08
2016-09-13T02:31:49.349Z,22.10
2016-09-13T02:32:11.195Z,22.04
2016-09-13T02:32:33.086Z,22.08
2016-09-13T02:32:54.846Z,22.05
2016-09-13T02:33:16.664Z,22.04
2016-09-13T02:33:38.411Z,22.06
2016-09-13T02:34:00.405Z,22.08
2016-09-13T02:34:22.165Z,22.18
2016-09-13T02:34:44.020Z,22.21
2016-09-13T02:35:05.832Z,22.21
2016-09-13T02:35:27.562Z,22.22
2016-09-13T02:35:49.307Z,22.27
2016-09-13T02:36:11.141Z,22.33
2016-09-13T02:36:32.875Z,22.55
2016-09-13T02:36:54.690Z,22.63
2016-09-13T02:37:17.550Z,22.73
2016-09-13T02:37:39.540Z,22.87
2016-09-13T02:38:01.428Z,22.99
2016-09-13T02:38:23.560Z,23.12
2016-09-13T02:38:45.298Z,23.12
2016-09-13T02:39:07.041Z,23.20
2016-09-13T02:39:28.776Z,23.31
2016-09-13T02:39:50.523Z,23.31
2016-09-13T02:40:12.533Z,23.25
2016-09-13T02:40:39.032Z,23.25
2016-09-13T02:41:00.762Z,23.30
2016-09-13T02:41:22.519Z,23.20
2016-09-13T02:41:44.321Z,23.00
2016-09-13T02:42:06.062Z,22.75
2016-09-13T02:42:27.838Z,22.63
2016-09-13T02:42:49.576Z,22.65
2016-09-13T02:43:12.380Z,22.63
2016-09-13T02:43:34.104Z,22.54
2016-09-13T02:43:55.835Z,22.50
2016-09-13T02:44:17.573Z,22.37
2016-09-13T02:44:40.306Z,22.41
2016-09-13T02:45:02.065Z,22.41
2016-09-13T02:45:23.807Z,22.45
2016-09-13T02:45:45.544Z,22.51
2016-09-13T02:46:07.269Z,22.51
2016-09-13T02:46:29.083Z,22.45
2016-09-13T02:46:50.874Z,22.41
2016-09-13T02:47:12.621Z,22.32
2016-09-13T02:47:34.497Z,22.36
2016-09-13T02:47:56.296Z,22.53
2016-09-13T02:48:18.056Z,22.51
2016-09-13T02:48:44.581Z,22.45
2016-09-13T02:49:06.337Z,22.41
2016-09-13T02:49:28.075Z,22.43
2016-09-13T02:49:49.924Z,22.48
2016-09-13T02:50:11.662Z,22.67
2016-09-13T02:50:33.391Z,22.81
2016-09-13T02:50:57.954Z,22.81
2016-09-13T02:51:19.739Z,22.68
2016-09-13T02:51:41.458Z,22.56
2016-09-13T02:52:04.203Z,22.63
2016-09-13T02:52:25.940Z,22.78
2016-09-13T02:52:47.669Z,22.89
2016-09-13T02:53:09.409Z,22.96
2016-09-13T02:53:31.224Z,22.83
2016-09-13T02:53:52.955Z,22.56
2016-09-13T02:54:14.683Z,22.34
2016-09-13T02:54:36.449Z,22.27
2016-09-13T02:54:58.204Z,22.15
2016-09-13T02:55:19.936Z,22.14
2016-09-13T02:55:41.781Z,22.15
2016-09-13T02:56:03.579Z,22.14
2016-09-13T02:56:25.323Z,22.12
2016-09-13T02:56:47.119Z,22.08
2016-09-13T02:57:08.936Z,22.05
2016-09-13T02:57:30.868Z,22.05
2016-09-13T02:57:52.651Z,22.13
2016-09-13T02:58:14.421Z,22.37
2016-09-13T02:58:36.309Z,22.49
2016-09-13T02:58:58.043Z,22.39
2016-09-13T02:59:19.784Z,22.21
2016-09-13T02:59:41.563Z,22.09
2016-09-13T03:00:03.288Z,22.09
2016-09-13T03:00:26.084Z,22.08
2016-09-13T03:00:47.822Z,22.05
2016-09-13T03:01:09.586Z,22.10
2016-09-13T03:01:31.345Z,22.10
2016-09-13T03:01:53.090Z,22.05
2016-09-13T03:02:14.830Z,22.08
2016-09-13T03:02:37.588Z,22.09
2016-09-13T03:02:59.345Z,22.12
2016-09-13T03:03:21.090Z,22.14
2016-09-13T03:03:42.868Z,22.33
2016-09-13T03:04:04.648Z,22.55
2016-09-13T03:04:26.472Z,22.62
2016-09-13T03:04:48.216Z,22.73
2016-09-13T03:05:10.062Z,22.91
2016-09-13T03:05:31.822Z,22.98
2016-09-13T03:05:53.560Z,23.00
2016-09-13T03:06:15.452Z,23.09
2016-09-13T03:06:37.308Z,23.02
2016-09-13T03:06:59.097Z,22.96
2016-09-13T03:07:20.824Z,22.81
2016-09-13T03:07:42.577Z,22.62
2016-09-13T03:08:04.446Z,22.45
2016-09-13T03:08:26.255Z,22.32
2016-09-13T03:08:47.995Z,22.18
2016-09-13T03:09:09.717Z,22.06
2016-09-13T03:09:31.663Z,22.18
2016-09-13T03:09:53.512Z,22.37
2016-09-13T03:10:15.243Z,22.62
2016-09-13T03:10:36.990Z,22.71
2016-09-13T03:10:58.798Z,22.80
2016-09-13T03:11:20.539Z,22.80
2016-09-13T03:11:42.319Z,22.67
2016-09-13T03:12:04.098Z,22.46
2016-09-13T03:12:25.839Z,22.29
2016-09-13T03:12:47.643Z,22.18
2016-09-13T03:13:10.417Z,22.27
2016-09-13T03:13:32.148Z,22.17
2016-09-13T03:13:54.887Z,22.01
2016-09-13T03:14:16.667Z,21.85
2016-09-13T03:14:38.430Z,21.85
2016-09-13T03:15:00.168Z,21.85
2016-09-13T03:15:21.956Z,21.95
2016-09-13T03:15:43.691Z,21.96
2016-09-13T03:16:05.426Z,21.93
2016-09-13T03:16:27.205Z,21.93
2016-09-13T03:16:48.924Z,22.15
2016-09-13T03:17:10.786Z,22.39
2016-09-13T03:17:32.510Z,22.33
2016-09-13T03:17:54.261Z,22.13
2016-09-13T03:18:16.018Z,21.91
2016-09-13T03:18:37.871Z,21.84
2016-09-13T03:18:59.583Z,21.86
2016-09-13T03:19:21.397Z,21.74
2016-09-13T03:19:43.138Z,21.71
2016-09-13T03:20:04.859Z,21.71
2016-09-13T03:20:26.586Z,21.75
2016-09-13T03:20:48.335Z,21.80
2016-09-13T03:21:10.066Z,21.81
2016-09-13T03:21:31.852Z,21.99
2016-09-13T03:21:53.710Z,22.25
2016-09-13T03:22:15.503Z,22.47
2016-09-13T03:22:37.224Z,22.62
2016-09-13T03:22:58.981Z,22.50
2016-09-13T03:23:21.691Z,22.36
2016-09-13T03:23:43.532Z,22.48
2016-09-13T03:24:10.031Z,22.08
2016-09-13T03:24:36.595Z,21.80
2016-09-13T03:24:58.379Z,21.77
2016-09-13T03:25:20.107Z,21.78
2016-09-13T03:25:41.868Z,21.80
2016-09-13T03:26:03.685Z,21.82
2016-09-13T03:26:25.471Z,21.92
2016-09-13T03:26:48.207Z,22.08
2016-09-13T03:27:10.044Z,22.32
2016-09-13T03:27:31.793Z,22.54
2016-09-13T03:27:53.538Z,22.48
2016-09-13T03:28:15.295Z,22.47
2016-09-13T03:28:37.077Z,22.33
2016-09-13T03:28:58.955Z,22.15
2016-09-13T03:29:20.678Z,22.12
2016-09-13T03:29:42.405Z,22.11
2016-09-13T03:30:04.149Z,22.12
2016-09-13T03:30:25.873Z,22.06
2016-09-13T03:30:47.666Z,22.15
2016-09-13T03:31:09.438Z,22.22
2016-09-13T03:31:31.167Z,22.29
2016-09-13T03:31:52.891Z,22.43
2016-09-13T03:32:14.748Z,22.27
2016-09-13T03:32:36.574Z,22.03
2016-09-13T03:32:58.305Z,22.06
2016-09-13T03:33:20.060Z,22.32
2016-09-13T03:33:41.797Z,22.51
2016-09-13T03:34:03.695Z,22.67
2016-09-13T03:34:25.627Z,22.65
2016-09-13T03:34:47.429Z,22.54
2016-09-13T03:35:09.237Z,22.35
2016-09-13T03:35:31.016Z,22.20
2016-09-13T03:35:52.793Z,22.11
2016-09-13T03:36:41.020Z,22.09
2016-09-13T03:37:02.860Z,22.23
2016-09-13T03:37:29.407Z,22.37
2016-09-13T03:37:51.198Z,22.46
2016-09-13T03:38:12.934Z,22.68
2016-09-13T03:38:34.702Z,22.72
2016-09-13T03:39:01.196Z,22.75
2016-09-13T03:39:23.167Z,22.74
2016-09-13T03:39:44.939Z,22.73
2016-09-13T03:40:06.680Z,22.68
2016-09-13T03:40:28.468Z,22.62
2016-09-13T03:40:50.203Z,22.59
2016-09-13T03:41:12.111Z,22.36
2016-09-13T03:41:33.951Z,22.24
2016-09-13T03:41:55.692Z,22.22
2016-09-13T03:42:17.426Z,22.08
2016-09-13T03:42:39.160Z,22.01
2016-09-13T03:43:00.891Z,22.00
2016-09-13T03:43:22.642Z,21.83
2016-09-13T03:43:44.485Z,21.83
2016-09-13T03:44:06.233Z,21.83
2016-09-13T03:44:27.953Z,21.72
2016-09-13T03:44:49.692Z,21.61
2016-09-13T03:45:11.431Z,21.52
2016-09-13T03:45:33.172Z,21.51
2016-09-13T03:45:54.914Z,21.48
2016-09-13T03:46:16.649Z,21.42
2016-09-13T03:46:38.395Z,21.39
2016-09-13T03:47:00.149Z,21.35
2016-09-13T03:47:22.012Z,21.37
2016-09-13T03:47:43.739Z,21.39
2016-09-13T03:48:05.464Z,21.51
2016-09-13T03:48:27.263Z,21.60
2016-09-13T03:48:49.119Z,21.74
2016-09-13T03:49:10.844Z,21.90
2016-09-13T03:49:32.616Z,22.08
2016-09-13T03:49:54.417Z,22.15
2016-09-13T03:50:16.158Z,22.17
2016-09-13T03:50:37.883Z,22.14
2016-09-13T03:51:04.389Z,21.95
2016-09-13T03:51:27.119Z,21.80
2016-09-13T03:51:48.853Z,21.78
2016-09-13T03:52:10.581Z,21.82
2016-09-13T03:52:32.308Z,21.96
2016-09-13T03:52:54.043Z,21.99
2016-09-13T03:53:15.806Z,21.86
2016-09-13T03:53:37.567Z,21.76
2016-09-13T03:53:59.314Z,21.77
2016-09-13T03:54:21.057Z,21.68
2016-09-13T03:54:42.785Z,21.68
2016-09-13T03:55:04.530Z,21.69
2016-09-13T03:55:26.281Z,21.72
2016-09-13T03:55:48.032Z,21.88
2016-09-13T03:56:09.755Z,21.91
2016-09-13T03:56:31.486Z,21.91
2016-09-13T03:56:57.993Z,22.21
2016-09-13T03:57:19.717Z,22.27
2016-09-13T03:57:41.484Z,22.24
2016-09-13T03:58:03.295Z,22.22
2016-09-13T03:58:25.058Z,22.29
2016-09-13T03:58:46.814Z,22.28
2016-09-13T03:59:08.545Z,22.23
2016-09-13T03:59:35.054Z,22.01
2016-09-13T03:59:56.792Z,21.77
2016-09-13T04:00:18.629Z,21.50
2016-09-13T04:00:40.462Z,21.35
2016-09-13T04:01:06.962Z,21.29
2016-09-13T04:01:28.702Z,21.42
2016-09-13T04:01:50.463Z,21.58
2016-09-13T04:02:12.194Z,21.76
2016-09-13T04:02:33.992Z,21.71
2016-09-13T04:02:55.740Z,21.58
2016-09-13T04:03:17.487Z,21.51
2016-09-13T04:03:39.211Z,21.46
2016-09-13T04:04:00.939Z,21.47
2016-09-13T04:04:22.802Z,21.44
2016-09-13T04:04:44.734Z,21.45
2016-09-13T04:05:06.494Z,21.39
2016-09-13T04:05:28.213Z,21.36
2016-09-13T04:05:49.957Z,21.37
2016-09-13T04:06:11.806Z,21.32
2016-09-13T04:06:33.534Z,21.32
2016-09-13T04:06:55.289Z,21.37
2016-09-13T04:07:17.026Z,21.38
2016-09-13T04:07:38.754Z,21.45
2016-09-13T04:08:00.495Z,21.58
2016-09-13T04:08:22.226Z,21.87
2016-09-13T04:08:44.020Z,22.07
2016-09-13T04:09:05.752Z,22.21
2016-09-13T04:09:27.496Z,22.16
2016-09-13T04:09:49.221Z,22.14
2016-09-13T04:10:10.959Z,22.08
2016-09-13T04:10:32.705Z,22.15
2016-09-13T04:10:54.481Z,22.32
2016-09-13T04:11:16.398Z,22.25
2016-09-13T04:11:38.168Z,22.18
2016-09-13T04:11:59.973Z,22.03
2016-09-13T04:12:21.708Z,22.00
2016-09-13T04:12:43.461Z,21.92
2016-09-13T04:13:05.317Z,21.89
2016-09-13T04:13:27.048Z,22.00
2016-09-13T04:13:48.770Z,22.11
2016-09-13T04:14:10.588Z,22.16
2016-09-13T04:14:32.312Z,22.23
2016-09-13T04:14:54.043Z,21.94
2016-09-13T04:15:15.797Z,21.70
2016-09-13T04:15:37.525Z,21.60
2016-09-13T04:15:59.269Z,21.46
2016-09-13T04:16:21.999Z,21.38
2016-09-13T04:16:43.788Z,21.32
2016-09-13T04:17:05.621Z,21.34
2016-09-13T04:17:29.909Z,21.43
2016-09-13T04:17:54.198Z,21.76
2016-09-13T04:18:16.929Z,21.88
2016-09-13T04:18:38.654Z,22.03
2016-09-13T04:19:00.376Z,22.21
2016-09-13T04:19:22.146Z,22.17
2016-09-13T04:19:44.881Z,22.13
2016-09-13T04:20:06.671Z,21.92
2016-09-13T04:20:28.408Z,21.94
2016-09-13T04:20:50.165Z,22.01
2016-09-13T04:21:11.903Z,22.12
2016-09-13T04:21:33.660Z,22.06
2016-09-13T04:21:55.388Z,21.98
2016-09-13T04:22:21.890Z,22.01
2016-09-13T04:22:43.684Z,22.03
2016-09-13T04:23:05.406Z,21.95
2016-09-13T04:23:27.163Z,21.87
2016-09-13T04:23:48.914Z,21.77
2016-09-13T04:24:10.651Z,21.77
2016-09-13T04:24:32.382Z,21.75
2016-09-13T04:24:54.123Z,21.69
2016-09-13T04:25:15.867Z,21.59
2016-09-13T04:25:37.642Z,21.52
2016-09-13T04:25:59.378Z,21.48
2016-09-13T04:26:21.124Z,21.66
2016-09-13T04:26:43.004Z,21.87
2016-09-13T04:27:04.779Z,21.86
2016-09-13T04:27:27.547Z,21.67
2016-09-13T04:28:19.797Z,21.49
2016-09-13T04:28:41.525Z,21.45
2016-09-13T04:29:03.279Z,21.39
2016-09-13T04:29:25.013Z,21.46
2016-09-13T04:29:46.747Z,21.36
2016-09-13T04:30:18.014Z,21.22
2016-09-13T04:30:39.752Z,21.18
2016-09-13T04:31:01.484Z,21.12
2016-09-13T04:31:23.205Z,21.08
2016-09-13T04:31:44.939Z,21.13
2016-09-13T04:32:06.661Z,21.33
2016-09-13T04:32:28.376Z,21.27
2016-09-13T04:32:50.094Z,21.15
2016-09-13T04:33:11.825Z,21.03
2016-09-13T04:33:33.550Z,20.96
2016-09-13T04:33:55.272Z,20.96
2016-09-13T04:34:16.987Z,21.08
2016-09-13T04:34:38.728Z,21.21
2016-09-13T04:35:00.449Z,21.25
2016-09-13T04:35:22.162Z,21.33
2016-09-13T04:35:43.883Z,21.46
2016-09-13T04:36:05.608Z,21.74
2016-09-13T04:36:27.333Z,21.98
2016-09-13T04:36:49.054Z,22.02
2016-09-13T04:37:10.839Z,22.11
2016-09-13T04:37:32.557Z,22.15
2016-09-13T04:37:54.290Z,22.04
2016-09-13T04:38:16.007Z,22.00
2016-09-13T04:38:37.730Z,22.03
2016-09-13T04:38:59.445Z,22.03
2016-09-13T04:39:21.179Z,22.07
2016-09-13T04:39:42.893Z,22.15
2016-09-13T04:40:04.625Z,22.27
2016-09-13T04:40:26.343Z,22.19
2016-09-13T04:40:48.078Z,22.04
2016-09-13T04:41:09.857Z,21.95
2016-09-13T04:41:31.589Z,21.94
2016-09-13T04:41:53.299Z,21.79
2016-09-13T04:42:15.021Z,21.71
2016-09-13T04:42:36.759Z,21.67
2016-09-13T04:42:58.490Z,21.72
2016-09-13T04:43:20.231Z,21.80
2016-09-13T04:43:41.962Z,21.64
2016-09-13T04:44:03.689Z,21.49
2016-09-13T04:44:25.404Z,21.39
2016-09-13T04:44:47.127Z,21.30
2016-09-13T04:45:08.851Z,21.20
2016-09-13T04:45:30.595Z,21.11
2016-09-13T04:45:52.316Z,21.11
2016-09-13T04:46:14.051Z,21.05
2016-09-13T04:46:35.775Z,21.02
2016-09-13T04:46:57.504Z,21.04
2016-09-13T04:47:19.226Z,21.04
2016-09-13T04:47:40.950Z,21.03
2016-09-13T04:48:02.682Z,21.01